Time;durP1;ratioP1;P1;durP2;ratioP2;P2;SDS_P1;SDS_P2;PMS_P1;PMS_P2;Temp;Humidity;BMP_temperature;BMP_pressure;BME280_temperature;BME280_humidity;BME280_pressure;Samples;Min_cycle;Max_cycle;Signal;HPM_P1;HPM_P2
2022/10/12 00:00:34;;;;;;;23.33;10.90;;;6.70;99.90;;;;;;5014558;28;20408;-72
2022/10/12 00:03:06;;;;;;;23.63;11.40;;;6.70;99.90;;;;;;5014208;28;20471;-72
2022/10/12 00:05:31;;;;;;;22.60;9.88;;;6.70;99.90;;;;;;5014568;28;20395;-72
2022/10/12 00:07:57;;;;;;;24.30;11.40;;;6.70;99.90;;;;;;5014909;28;20381;-72
2022/10/12 00:10:22;;;;;;;23.45;10.73;;;6.70;99.90;;;;;;5014589;28;20388;-71
2022/10/12 00:12:48;;;;;;;19.98;10.30;;;6.70;99.90;;;;;;5014776;28;20381;-73
2022/10/12 00:15:13;;;;;;;22.00;11.00;;;6.60;99.90;;;;;;5015111;28;20385;-72
2022/10/12 00:17:39;;;;;;;30.17;11.60;;;6.60;99.90;;;;;;5015086;28;20389;-72
2022/10/12 00:20:05;;;;;;;27.13;13.20;;;6.50;99.90;;;;;;5014850;28;20407;-71
2022/10/12 00:22:30;;;;;;;26.27;11.38;;;6.60;99.90;;;;;;5014581;28;20389;-72
2022/10/12 00:24:56;;;;;;;21.07;11.10;;;6.70;99.90;;;;;;5013232;28;20507;-72
2022/10/12 00:27:21;;;;;;;22.03;11.30;;;6.60;99.90;;;;;;5012860;28;20480;-72
2022/10/12 00:29:47;;;;;;;24.60;12.10;;;6.50;99.90;;;;;;5014494;28;20427;-72
2022/10/12 00:32:13;;;;;;;19.63;11.63;;;6.50;99.90;;;;;;5014135;28;20395;-72
2022/10/12 00:34:38;;;;;;;20.63;11.00;;;6.50;99.90;;;;;;5014274;28;20751;-74
2022/10/12 00:37:04;;;;;;;21.70;10.20;;;6.40;99.90;;;;;;5014253;28;20396;-72
2022/10/12 00:39:29;;;;;;;22.83;10.50;;;6.40;99.90;;;;;;5014216;28;20488;-71
2022/10/12 00:41:55;;;;;;;19.42;10.02;;;6.30;99.90;;;;;;5013956;28;20864;-73
2022/10/12 00:44:42;;;;;;;19.05;10.10;;;6.30;99.90;;;;;;5013773;28;20878;-72
2022/10/12 00:47:23;;;;;;;24.20;10.50;;;6.20;99.90;;;;;;5013718;28;20785;-72
2022/10/12 00:49:56;;;;;;;20.98;10.00;;;6.20;99.90;;;;;;5013699;28;20399;-72
2022/10/12 00:52:29;;;;;;;24.02;11.02;;;6.20;99.90;;;;;;5013878;28;20826;-72
2022/10/12 00:54:55;;;;;;;18.20;10.48;;;6.20;99.90;;;;;;5013927;28;20393;-74
2022/10/12 00:57:22;;;;;;;20.57;9.77;;;6.20;99.90;;;;;;5012908;28;20474;-73
2022/10/12 00:59:53;;;;;;;17.70;9.40;;;6.30;99.90;;;;;;5013185;28;20923;-72
2022/10/12 01:02:20;;;;;;;20.85;9.57;;;6.30;99.90;;;;;;5013399;28;20404;-72
2022/10/12 01:04:46;;;;;;;21.20;9.23;;;6.30;99.90;;;;;;5012643;28;20412;-73
2022/10/12 01:07:13;;;;;;;18.83;9.33;;;6.20;99.90;;;;;;5012330;28;20393;-73
2022/10/12 01:09:38;;;;;;;24.65;9.43;;;6.30;99.90;;;;;;5012362;28;20404;-72
2022/10/12 01:12:06;;;;;;;22.97;9.67;;;6.30;99.90;;;;;;5012970;28;20397;-72
2022/10/12 01:14:32;;;;;;;17.50;8.90;;;6.40;99.90;;;;;;5012717;28;20396;-72
2022/10/12 01:17:15;;;;;;;23.02;9.23;;;6.30;99.90;;;;;;5012721;28;20401;-71
2022/10/12 01:19:46;;;;;;;17.65;8.80;;;6.30;99.90;;;;;;5008082;28;20507;-76
2022/10/12 01:22:17;;;;;;;18.65;9.27;;;6.30;99.90;;;;;;5012403;28;20426;-72
2022/10/12 01:24:59;;;;;;;21.23;9.10;;;6.30;99.90;;;;;;5012884;28;20377;-73
2022/10/12 01:27:27;;;;;;;19.42;9.35;;;6.20;99.90;;;;;;5012212;28;20913;-72
2022/10/12 01:30:17;;;;;;;24.92;10.68;;;6.20;99.90;;;;;;5012955;28;20479;-72
2022/10/12 01:33:04;;;;;;;18.58;10.20;;;6.20;99.90;;;;;;5012634;28;20472;-71
2022/10/12 01:35:46;;;;;;;16.83;9.90;;;6.20;99.90;;;;;;5013935;28;20389;-73
2022/10/12 01:38:27;;;;;;;24.13;10.10;;;6.20;99.90;;;;;;5012995;28;20485;-71
2022/10/12 01:41:22;;;;;;;20.67;9.03;;;6.20;99.90;;;;;;5011130;28;20444;-71
2022/10/12 01:43:50;;;;;;;18.13;8.45;;;6.20;99.90;;;;;;5005184;28;20396;-72
2022/10/12 01:46:15;;;;;;;16.63;8.07;;;6.30;99.90;;;;;;5012605;28;20385;-71
2022/10/12 01:48:43;;;;;;;18.33;8.73;;;6.30;99.90;;;;;;5012542;28;20876;-71
2022/10/12 01:51:11;;;;;;;15.63;8.40;;;6.30;99.90;;;;;;5010992;28;20399;-72
2022/10/12 01:54:07;;;;;;;18.40;8.00;;;6.30;99.90;;;;;;5012393;28;20409;-71
2022/10/12 01:56:46;;;;;;;20.00;8.30;;;6.40;99.90;;;;;;5012845;28;20463;-72
2022/10/12 01:59:28;;;;;;;21.60;9.27;;;6.50;99.90;;;;;;5012944;28;20762;-72
2022/10/12 02:02:02;;;;;;;19.58;8.18;;;6.60;99.90;;;;;;5013523;28;20419;-72
2022/10/12 02:04:59;;;;;;;18.83;8.93;;;6.70;99.90;;;;;;5013593;28;20384;-72
2022/10/12 02:07:44;;;;;;;18.90;8.20;;;6.70;99.90;;;;;;5013157;28;20411;-72
2022/10/12 02:10:16;;;;;;;18.02;8.30;;;6.60;99.90;;;;;;5012979;28;20415;-72
2022/10/12 02:12:44;;;;;;;18.92;8.80;;;6.50;99.90;;;;;;5013070;28;20396;-72
2022/10/12 02:15:11;;;;;;;15.60;7.80;;;6.60;99.90;;;;;;5013670;28;20393;-71
2022/10/12 02:17:40;;;;;;;17.25;8.82;;;6.50;99.90;;;;;;5013421;28;20900;-71
2022/10/12 02:20:10;;;;;;;18.63;8.18;;;6.50;99.90;;;;;;5013718;28;20451;-72
2022/10/12 02:22:37;;;;;;;18.25;9.30;;;6.50;99.90;;;;;;5014325;28;20522;-72
2022/10/12 02:25:06;;;;;;;15.52;8.60;;;6.50;99.90;;;;;;5014570;28;20392;-72
2022/10/12 02:27:34;;;;;;;20.75;8.13;;;6.60;99.90;;;;;;5014501;28;20381;-71
2022/10/12 02:30:01;;;;;;;18.25;9.07;;;6.60;99.90;;;;;;5013180;28;20440;-71
2022/10/12 02:32:34;;;;;;;17.88;8.70;;;6.60;99.90;;;;;;5012228;28;20912;-72
2022/10/12 02:35:24;;;;;;;19.13;8.90;;;6.50;99.90;;;;;;5031534;28;20399;-71
2022/10/12 02:38:15;;;;;;;20.75;8.50;;;6.60;99.90;;;;;;5032492;28;20407;-71
2022/10/12 02:40:43;;;;;;;18.92;8.48;;;6.60;99.90;;;;;;5023892;28;20441;-70
2022/10/12 02:43:21;;;;;;;21.73;8.82;;;6.50;99.90;;;;;;4997425;28;20547;-70
2022/10/12 02:45:48;;;;;;;19.02;8.88;;;6.50;99.90;;;;;;5013318;28;20848;-71
2022/10/12 02:48:18;;;;;;;16.33;8.20;;;6.50;99.90;;;;;;5011892;28;20389;-71
2022/10/12 02:50:46;;;;;;;17.80;8.27;;;6.60;99.90;;;;;;5011523;28;20391;-71
2022/10/12 02:53:13;;;;;;;22.98;8.48;;;6.60;99.90;;;;;;5011160;28;20482;-71
2022/10/12 02:55:53;;;;;;;20.60;8.38;;;6.50;99.90;;;;;;5011637;28;20956;-71
2022/10/12 02:58:19;;;;;;;19.27;8.30;;;6.50;99.90;;;;;;5011179;28;20762;-71
2022/10/12 03:00:45;;;;;;;14.75;8.30;;;6.50;99.90;;;;;;5014350;28;20413;-71
2022/10/12 03:03:11;;;;;;;17.33;7.87;;;6.40;99.90;;;;;;5015099;28;20475;-71
2022/10/12 03:05:36;;;;;;;15.80;7.82;;;6.50;99.90;;;;;;5014664;28;20470;-71
2022/10/12 03:08:02;;;;;;;17.05;7.65;;;6.40;99.90;;;;;;5011352;28;20380;-70
2022/10/12 03:10:28;;;;;;;21.67;8.93;;;6.40;99.90;;;;;;5011693;28;20397;-71
2022/10/12 03:12:53;;;;;;;18.88;8.10;;;6.30;99.90;;;;;;5011630;28;20385;-73
2022/10/12 03:15:19;;;;;;;16.92;8.63;;;6.30;99.90;;;;;;5011729;28;20385;-71
2022/10/12 03:17:44;;;;;;;19.23;8.02;;;6.30;99.90;;;;;;5010319;28;20393;-71
2022/10/12 03:20:10;;;;;;;16.25;7.13;;;6.40;99.90;;;;;;5011881;28;20492;-72
2022/10/12 03:22:36;;;;;;;19.27;7.60;;;6.40;99.90;;;;;;5014719;28;20395;-73
2022/10/12 03:25:01;;;;;;;15.73;8.02;;;6.30;99.90;;;;;;5015726;28;20439;-71
2022/10/12 03:27:27;;;;;;;17.15;7.40;;;6.30;99.90;;;;;;5015983;28;20388;-71
2022/10/12 03:29:52;;;;;;;18.13;7.80;;;6.30;99.90;;;;;;5016077;28;20388;-71
2022/10/12 03:32:18;;;;;;;16.95;7.80;;;6.30;99.90;;;;;;5015765;28;20388;-71
2022/10/12 03:34:43;;;;;;;23.85;9.18;;;6.30;99.90;;;;;;5015915;28;20392;-70
2022/10/12 03:37:09;;;;;;;18.37;7.27;;;6.20;99.90;;;;;;5015705;28;20511;-72
2022/10/12 03:39:35;;;;;;;15.40;7.40;;;6.20;99.90;;;;;;5015355;28;20795;-72
2022/10/12 03:42:00;;;;;;;16.87;7.27;;;6.20;99.90;;;;;;5015178;28;20483;-72
2022/10/12 03:44:26;;;;;;;15.93;7.77;;;6.10;99.90;;;;;;5015165;28;20376;-71
2022/10/12 03:46:51;;;;;;;16.97;7.10;;;6.10;99.90;;;;;;5014966;28;20467;-71
2022/10/12 03:49:17;;;;;;;19.70;7.40;;;6.00;99.90;;;;;;5015277;28;20384;-71
2022/10/12 03:51:42;;;;;;;17.23;7.37;;;6.00;99.90;;;;;;5015151;28;20450;-72
2022/10/12 03:54:08;;;;;;;15.90;7.33;;;6.00;99.90;;;;;;5015757;28;20451;-72
2022/10/12 03:56:34;;;;;;;15.93;7.10;;;6.00;99.90;;;;;;5014932;28;20393;-71
2022/10/12 03:58:59;;;;;;;14.10;7.10;;;5.90;99.90;;;;;;5014395;28;20793;-71
2022/10/12 04:01:25;;;;;;;13.83;7.30;;;5.90;99.90;;;;;;5014706;28;20388;-70
2022/10/12 04:03:50;;;;;;;20.33;8.13;;;5.90;99.90;;;;;;5014811;28;20818;-70
2022/10/12 04:06:16;;;;;;;13.57;7.40;;;6.00;99.90;;;;;;5014953;28;20406;-70
2022/10/12 04:08:41;;;;;;;16.30;7.80;;;6.00;99.90;;;;;;5014636;28;20389;-71
2022/10/12 04:11:07;;;;;;;12.37;7.00;;;6.00;99.90;;;;;;5014126;28;20388;-70
2022/10/12 04:13:33;;;;;;;16.20;7.50;;;6.10;99.90;;;;;;5014646;28;20380;-71
2022/10/12 04:16:04;;;;;;;14.63;7.13;;;6.20;99.90;;;;;;5014414;28;20396;-71
2022/10/12 04:18:30;;;;;;;17.95;7.95;;;6.10;99.90;;;;;;5012973;28;20400;-71
2022/10/12 04:20:55;;;;;;;14.30;7.10;;;6.20;99.90;;;;;;5013733;28;20904;-72
2022/10/12 04:23:21;;;;;;;18.20;7.90;;;6.20;99.90;;;;;;5012818;28;20393;-70
2022/10/12 04:25:46;;;;;;;17.90;7.20;;;6.20;99.90;;;;;;5014150;28;20381;-70
2022/10/12 04:28:12;;;;;;;14.83;7.40;;;6.20;99.90;;;;;;5014395;28;20385;-71
2022/10/12 04:30:38;;;;;;;20.83;7.10;;;6.30;99.90;;;;;;5014474;28;20451;-70
2022/10/12 04:33:04;;;;;;;16.03;6.97;;;6.30;99.90;;;;;;5013566;28;20443;-70
2022/10/12 04:35:30;;;;;;;19.00;7.25;;;6.30;99.90;;;;;;5014190;28;20397;-70
2022/10/12 04:37:56;;;;;;;18.40;7.00;;;6.40;99.90;;;;;;5013921;28;20388;-71
2022/10/12 04:40:21;;;;;;;13.52;7.15;;;6.40;99.90;;;;;;5013984;28;20500;-71
2022/10/12 04:42:47;;;;;;;15.80;7.32;;;6.40;99.90;;;;;;5013397;28;20387;-71
2022/10/12 04:45:13;;;;;;;17.00;7.07;;;6.50;99.90;;;;;;5013578;28;20407;-71
2022/10/12 04:47:38;;;;;;;16.95;6.65;;;6.40;99.90;;;;;;5013578;28;20984;-71
2022/10/12 04:50:04;;;;;;;18.90;7.10;;;6.50;99.90;;;;;;5013950;28;20384;-70
2022/10/12 04:52:30;;;;;;;15.85;7.13;;;6.60;99.90;;;;;;5013367;28;20902;-70
2022/10/12 04:54:56;;;;;;;13.93;6.90;;;6.60;99.90;;;;;;5012119;28;20412;-71
2022/10/12 04:57:21;;;;;;;12.48;7.28;;;6.60;99.90;;;;;;5012809;28;20389;-71
2022/10/12 04:59:47;;;;;;;17.13;6.88;;;6.50;99.90;;;;;;5012433;28;20901;-71
2022/10/12 05:02:12;;;;;;;18.55;7.80;;;6.50;99.90;;;;;;5012269;28;20381;-71
2022/10/12 05:04:38;;;;;;;20.77;7.20;;;6.50;99.90;;;;;;5012192;28;20376;-72
2022/10/12 05:07:03;;;;;;;14.25;7.18;;;6.50;99.90;;;;;;5012109;28;20905;-70
2022/10/12 05:09:29;;;;;;;17.55;8.25;;;6.40;99.90;;;;;;5012044;28;20879;-70
2022/10/12 05:11:54;;;;;;;17.05;8.00;;;6.40;99.90;;;;;;5011866;28;20397;-70
2022/10/12 05:14:20;;;;;;;18.30;7.90;;;6.30;99.90;;;;;;5011731;28;20401;-70
2022/10/12 05:16:45;;;;;;;15.70;7.07;;;6.30;99.90;;;;;;5011939;28;20389;-71
2022/10/12 05:19:11;;;;;;;18.40;7.80;;;6.20;99.90;;;;;;5011938;28;20411;-72
2022/10/12 05:21:39;;;;;;;22.47;8.80;;;6.10;99.90;;;;;;5012160;28;20485;-71
2022/10/12 05:24:05;;;;;;;16.02;8.02;;;6.10;99.90;;;;;;5012042;28;20392;-70
2022/10/12 05:26:30;;;;;;;16.50;8.07;;;6.10;99.90;;;;;;5011778;28;20796;-72
2022/10/12 05:28:56;;;;;;;16.97;7.80;;;6.10;99.90;;;;;;5011789;28;20408;-72
2022/10/12 05:31:21;;;;;;;19.50;8.50;;;6.00;99.90;;;;;;5011864;28;20996;-71
2022/10/12 05:33:47;;;;;;;21.13;9.40;;;5.80;99.90;;;;;;5012009;28;20467;-72
2022/10/12 05:36:13;;;;;;;18.73;8.27;;;6.00;99.90;;;;;;5012046;28;20870;-71
2022/10/12 05:38:38;;;;;;;14.43;8.70;;;5.90;99.90;;;;;;5012165;28;20400;-72
2022/10/12 05:41:04;;;;;;;21.57;8.60;;;5.80;99.90;;;;;;5011367;28;20420;-72
2022/10/12 05:43:29;;;;;;;18.30;8.40;;;5.70;99.90;;;;;;5009590;28;20393;-72
2022/10/12 05:45:55;;;;;;;17.23;8.90;;;5.70;99.90;;;;;;5011280;28;20877;-70
2022/10/12 05:48:21;;;;;;;41.25;10.57;;;5.60;99.90;;;;;;5011572;28;20446;-71
2022/10/12 05:50:46;;;;;;;24.23;8.63;;;5.60;99.90;;;;;;5012012;28;20397;-71
2022/10/12 05:53:12;;;;;;;22.07;9.03;;;5.60;99.90;;;;;;4949968;28;1760912;-71
2022/10/12 05:55:38;;;;;;;16.85;9.40;;;5.60;99.90;;;;;;5011800;28;20495;-72
2022/10/12 05:58:03;;;;;;;24.23;8.97;;;5.60;99.90;;;;;;5012758;28;20400;-71
2022/10/12 06:00:29;;;;;;;19.27;9.20;;;5.60;99.90;;;;;;5013478;28;20417;-72
2022/10/12 06:02:54;;;;;;;15.13;8.23;;;5.70;99.90;;;;;;5012637;28;20412;-70
2022/10/12 06:05:20;;;;;;;21.57;8.90;;;5.70;99.90;;;;;;5012380;28;20415;-72
2022/10/12 06:07:45;;;;;;;17.63;8.47;;;5.70;99.90;;;;;;5012257;28;20494;-71
2022/10/12 06:10:11;;;;;;;23.30;9.60;;;5.60;99.90;;;;;;5010678;28;20472;-71
2022/10/12 06:12:37;;;;;;;21.75;9.40;;;5.70;99.90;;;;;;5012116;28;20403;-71
2022/10/12 06:15:03;;;;;;;16.98;8.60;;;5.70;99.90;;;;;;5011912;28;20540;-72
2022/10/12 06:17:28;;;;;;;18.30;8.85;;;5.80;99.90;;;;;;5012502;28;20920;-72
2022/10/12 06:19:54;;;;;;;15.70;9.03;;;5.90;99.90;;;;;;5012233;28;20436;-71
2022/10/12 06:22:19;;;;;;;21.63;9.27;;;5.90;99.90;;;;;;5012530;28;20862;-71
2022/10/12 06:24:45;;;;;;;20.33;10.00;;;5.80;99.90;;;;;;5012313;28;20456;-72
2022/10/12 06:27:11;;;;;;;18.80;9.30;;;5.80;99.90;;;;;;5012428;28;20924;-72
2022/10/12 06:29:37;;;;;;;18.52;9.52;;;5.80;99.90;;;;;;5012798;28;20388;-72
2022/10/12 06:32:03;;;;;;;19.60;9.87;;;5.80;99.90;;;;;;5012079;28;20524;-71
2022/10/12 06:34:28;;;;;;;24.67;10.87;;;5.80;99.90;;;;;;5011957;28;20475;-72
2022/10/12 06:36:54;;;;;;;24.27;10.37;;;5.90;99.90;;;;;;5011853;28;20731;-72
2022/10/12 06:39:20;;;;;;;19.40;10.47;;;6.00;99.90;;;;;;5011890;28;20609;-72
2022/10/12 06:41:46;;;;;;;22.10;10.80;;;6.10;99.90;;;;;;5011695;28;20423;-70
2022/10/12 06:44:11;;;;;;;24.33;9.80;;;6.10;99.90;;;;;;5011828;28;20889;-70
2022/10/12 06:46:37;;;;;;;23.50;10.40;;;6.20;99.90;;;;;;5012757;28;20874;-71
2022/10/12 06:49:02;;;;;;;19.67;10.10;;;6.30;99.90;;;;;;5012964;28;20400;-72
2022/10/12 06:51:28;;;;;;;20.63;9.70;;;6.40;99.90;;;;;;5014115;28;20472;-72
2022/10/12 06:53:54;;;;;;;17.83;10.02;;;6.50;99.90;;;;;;5014373;28;20393;-71
2022/10/12 06:56:20;;;;;;;23.15;9.50;;;6.60;99.90;;;;;;5018902;28;20397;-71
2022/10/12 06:58:45;;;;;;;24.80;10.00;;;6.80;99.90;;;;;;5025822;28;20469;-71
2022/10/12 07:01:11;;;;;;;28.03;10.47;;;6.90;99.90;;;;;;5028986;28;20462;-71
2022/10/12 07:03:37;;;;;;;17.13;9.37;;;7.00;99.90;;;;;;5020531;28;20397;-72
2022/10/12 07:06:11;;;;;;;21.27;9.37;;;7.20;99.90;;;;;;5012383;28;20459;-71
2022/10/12 07:08:36;;;;;;;18.90;9.57;;;7.30;99.90;;;;;;5011898;28;20385;-72
2022/10/12 07:11:04;;;;;;;28.27;9.70;;;7.50;99.90;;;;;;5010919;28;20395;-71
2022/10/12 07:13:31;;;;;;;23.95;10.40;;;7.60;96.60;;;;;;5011297;28;20388;-71
2022/10/12 07:15:56;;;;;;;20.00;10.23;;;7.70;92.10;;;;;;5011455;28;20862;-72
2022/10/12 07:18:22;;;;;;;22.53;10.87;;;7.90;88.60;;;;;;5011323;28;20388;-72
2022/10/12 07:20:48;;;;;;;25.30;11.25;;;8.00;87.70;;;;;;5011157;28;20781;-71
2022/10/12 07:23:13;;;;;;;32.77;12.30;;;8.10;81.80;;;;;;5011622;28;20472;-71
2022/10/12 07:25:39;;;;;;;26.40;11.23;;;8.20;79.00;;;;;;5011050;28;20432;-71
2022/10/12 07:28:05;;;;;;;45.23;11.97;;;8.20;76.60;;;;;;5011014;28;20420;-71
2022/10/12 07:30:31;;;;;;;23.58;9.48;;;8.30;75.90;;;;;;5011158;28;20420;-71
2022/10/12 07:32:56;;;;;;;21.25;8.25;;;8.40;74.30;;;;;;5010591;28;20396;-72
2022/10/12 07:35:22;;;;;;;18.80;8.07;;;8.60;71.90;;;;;;5011020;28;20389;-71
2022/10/12 07:37:48;;;;;;;23.13;8.00;;;8.80;70.80;;;;;;5010981;28;20392;-72
2022/10/12 07:40:14;;;;;;;21.98;7.82;;;8.80;67.90;;;;;;5010697;28;20746;-71
2022/10/12 07:42:40;;;;;;;16.35;7.78;;;8.90;66.10;;;;;;5010642;28;20388;-71
2022/10/12 07:45:06;;;;;;;18.58;6.90;;;9.10;65.00;;;;;;5010939;28;20372;-72
2022/10/12 07:47:32;;;;;;;19.05;7.70;;;9.30;61.60;;;;;;5010888;28;20385;-71
2022/10/12 07:49:57;;;;;;;16.02;6.75;;;9.50;59.30;;;;;;5010771;28;20393;-71
2022/10/12 07:52:23;;;;;;;17.27;6.82;;;9.70;58.50;;;;;;5010521;28;20810;-71
2022/10/12 07:54:48;;;;;;;15.63;6.30;;;9.80;58.00;;;;;;5011066;28;20778;-71
2022/10/12 07:57:14;;;;;;;14.93;7.03;;;10.00;55.50;;;;;;5010933;28;20404;-71
2022/10/12 07:59:39;;;;;;;18.67;6.70;;;10.10;53.90;;;;;;5011039;28;20436;-72
2022/10/12 08:02:05;;;;;;;18.10;5.87;;;10.30;52.60;;;;;;5011005;28;20385;-72
2022/10/12 08:04:30;;;;;;;15.13;6.17;;;10.40;50.30;;;;;;5010870;28;20746;-72
2022/10/12 08:06:57;;;;;;;14.83;6.20;;;10.60;49.30;;;;;;5010976;28;20402;-71
2022/10/12 08:09:22;;;;;;;13.95;5.65;;;10.70;47.70;;;;;;5014439;28;20420;-71
2022/10/12 08:11:48;;;;;;;16.00;5.68;;;10.70;48.00;;;;;;5014181;28;20853;-71
2022/10/12 08:14:16;;;;;;;16.35;5.65;;;10.60;49.00;;;;;;5014466;28;20416;-72
2022/10/12 08:16:43;;;;;;;16.38;5.50;;;10.50;48.10;;;;;;5014062;28;20385;-70
2022/10/12 08:19:08;;;;;;;16.35;5.53;;;10.40;49.50;;;;;;5013963;28;20874;-71
2022/10/12 08:21:34;;;;;;;12.30;5.60;;;10.40;50.30;;;;;;5013811;28;20443;-71
2022/10/12 08:24:00;;;;;;;20.57;6.00;;;10.40;51.60;;;;;;5013650;28;20475;-71
2022/10/12 08:26:26;;;;;;;13.73;5.80;;;10.40;52.10;;;;;;5013894;28;20893;-71
2022/10/12 08:28:51;;;;;;;19.80;5.63;;;10.50;52.60;;;;;;5014375;28;20424;-72
2022/10/12 08:31:18;;;;;;;19.17;5.88;;;10.70;50.50;;;;;;5013681;28;20813;-72
2022/10/12 08:33:43;;;;;;;17.80;5.90;;;10.80;51.40;;;;;;5013647;28;20765;-70
2022/10/12 08:36:10;;;;;;;19.83;5.73;;;11.00;49.10;;;;;;5013795;28;20397;-71
2022/10/12 08:38:39;;;;;;;16.25;6.35;;;11.10;49.20;;;;;;5014029;28;20393;-71
2022/10/12 08:41:23;;;;;;;16.15;6.20;;;11.20;49.30;;;;;;5013640;28;20405;-71
2022/10/12 08:44:07;;;;;;;13.30;5.22;;;11.20;49.10;;;;;;5014015;28;20385;-72
2022/10/12 08:46:33;;;;;;;13.18;5.90;;;11.40;47.20;;;;;;5013681;28;20385;-72
2022/10/12 08:49:12;;;;;;;13.00;5.60;;;11.60;47.70;;;;;;5012775;28;20396;-70
2022/10/12 08:51:59;;;;;;;16.37;6.00;;;11.70;46.80;;;;;;5013867;28;20913;-71
2022/10/12 08:54:32;;;;;;;17.73;6.10;;;11.90;44.40;;;;;;5013099;28;20411;-72
2022/10/12 08:56:59;;;;;;;16.63;6.10;;;12.00;42.80;;;;;;5013617;28;20750;-72
2022/10/12 08:59:26;;;;;;;14.85;5.80;;;12.30;40.10;;;;;;5013603;28;20409;-71
2022/10/12 09:01:57;;;;;;;16.27;5.50;;;12.40;39.60;;;;;;5013459;28;20843;-72
2022/10/12 09:04:32;;;;;;;14.80;5.70;;;12.60;38.60;;;;;;5013414;28;20484;-71
2022/10/12 09:07:09;;;;;;;15.02;6.07;;;12.70;40.20;;;;;;5013294;28;20381;-72
2022/10/12 09:09:37;;;;;;;18.48;5.80;;;13.10;38.00;;;;;;5013661;28;20777;-72
2022/10/12 09:12:57;;;;;;;16.25;5.88;;;13.20;37.00;;;;;;5013160;28;20464;-71
2022/10/12 09:15:29;;;;;;;15.93;5.97;;;13.10;36.50;;;;;;4971792;28;20392;-71
2022/10/12 09:17:56;;;;;;;14.18;5.90;;;13.00;36.50;;;;;;5011694;28;20399;-72
2022/10/12 09:20:45;;;;;;;18.08;5.80;;;12.90;37.60;;;;;;5012587;28;20458;-71
2022/10/12 09:23:29;;;;;;;18.33;5.88;;;13.00;37.40;;;;;;5012881;28;20377;-72
2022/10/12 09:26:18;;;;;;;20.15;6.10;;;13.00;37.80;;;;;;5013051;28;20387;-72
2022/10/12 09:28:54;;;;;;;14.63;5.68;;;13.10;36.00;;;;;;5013083;28;20392;-72
2022/10/12 09:31:30;;;;;;;11.68;5.10;;;13.20;35.60;;;;;;5012813;28;20471;-70
2022/10/12 09:33:57;;;;;;;13.25;5.18;;;13.10;34.90;;;;;;5012682;28;20392;-71
2022/10/12 09:36:27;;;;;;;16.52;5.72;;;13.00;34.80;;;;;;5012749;28;20477;-71
2022/10/12 09:38:54;;;;;;;16.70;5.80;;;13.00;35.70;;;;;;5012562;28;20385;-71
2022/10/12 09:41:25;;;;;;;15.93;5.20;;;12.90;35.80;;;;;;5012574;28;20474;-72
2022/10/12 09:43:55;;;;;;;14.85;5.57;;;12.90;36.10;;;;;;5012823;28;20412;-72
2022/10/12 09:46:39;;;;;;;14.80;5.70;;;12.90;35.80;;;;;;5012689;28;20409;-72
2022/10/12 09:49:05;;;;;;;23.42;6.80;;;12.90;36.80;;;;;;5012316;28;20789;-73
2022/10/12 09:51:31;;;;;;;16.85;6.13;;;12.80;35.70;;;;;;5012185;28;20411;-70
2022/10/12 09:54:02;;;;;;;14.57;6.20;;;12.80;35.70;;;;;;5012838;28;20435;-71
2022/10/12 09:56:50;;;;;;;17.60;6.50;;;12.90;36.40;;;;;;5012452;28;20484;-72
2022/10/12 09:59:25;;;;;;;36.67;8.47;;;12.90;36.40;;;;;;5011142;28;20442;-72
2022/10/12 10:02:18;;;;;;;17.80;6.57;;;13.10;36.70;;;;;;5012061;28;20381;-72
2022/10/12 10:04:46;;;;;;;15.75;6.65;;;13.30;35.00;;;;;;5012177;28;20389;-71
2022/10/12 10:07:28;;;;;;;15.90;6.60;;;13.30;34.80;;;;;;5012804;28;20495;-71
2022/10/12 10:10:12;;;;;;;22.85;8.02;;;13.40;34.90;;;;;;5012081;28;20890;-72
2022/10/12 10:12:48;;;;;;;18.33;7.10;;;13.60;34.20;;;;;;5012440;28;20421;-71
2022/10/12 10:15:38;;;;;;;15.15;6.70;;;13.80;33.90;;;;;;5012163;28;20381;-71
2022/10/12 10:18:34;;;;;;;12.57;6.10;;;13.70;33.00;;;;;;5005606;28;20392;-71
2022/10/12 10:21:02;;;;;;;17.95;6.47;;;13.70;33.30;;;;;;5012551;28;20408;-72
2022/10/12 10:23:31;;;;;;;24.20;6.97;;;13.60;33.40;;;;;;5011994;28;20377;-72
2022/10/12 10:26:03;;;;;;;18.05;6.70;;;13.70;32.90;;;;;;5012839;28;20381;-72
2022/10/12 10:28:31;;;;;;;14.85;6.45;;;13.70;33.00;;;;;;5011926;28;20408;-72
2022/10/12 10:31:15;;;;;;;13.70;5.82;;;13.80;32.50;;;;;;5011120;28;20803;-71
2022/10/12 10:33:41;;;;;;;16.60;6.57;;;14.00;32.80;;;;;;5010415;28;20400;-71
2022/10/12 10:36:25;;;;;;;16.58;6.20;;;14.20;31.90;;;;;;5011668;28;20746;-71
2022/10/12 10:39:01;;;;;;;18.23;6.68;;;14.20;32.80;;;;;;5011606;28;20446;-72
2022/10/12 10:41:38;;;;;;;12.70;6.80;;;14.30;31.80;;;;;;5011509;28;20747;-72
2022/10/12 10:44:16;;;;;;;27.98;7.70;;;14.20;32.60;;;;;;5011662;28;20409;-72
2022/10/12 10:46:45;;;;;;;23.75;6.88;;;14.20;32.60;;;;;;5011389;28;20385;-71
2022/10/12 10:49:41;;;;;;;20.90;6.57;;;14.30;32.40;;;;;;5011196;28;20537;-72
2022/10/12 10:52:20;;;;;;;16.43;6.40;;;14.40;31.90;;;;;;5010575;28;20396;-73
2022/10/12 10:54:48;;;;;;;18.02;6.30;;;14.50;30.90;;;;;;5011276;28;20393;-72
2022/10/12 10:57:19;;;;;;;14.70;6.93;;;14.70;32.00;;;;;;5011471;28;20451;-73
2022/10/12 10:59:53;;;;;;;15.50;5.90;;;14.70;31.30;;;;;;5011580;28;20915;-73
2022/10/12 11:02:47;;;;;;;17.00;6.30;;;14.60;30.40;;;;;;5011612;28;20828;-71
2022/10/12 11:05:27;;;;;;;12.93;5.67;;;14.60;30.70;;;;;;5012215;28;20392;-72
2022/10/12 11:07:56;;;;;;;17.70;6.50;;;14.50;30.10;;;;;;5012523;28;20472;-71
2022/10/12 11:10:36;;;;;;;17.45;6.55;;;14.50;30.40;;;;;;5013249;28;20389;-73
2022/10/12 11:13:24;;;;;;;15.50;6.05;;;14.40;31.40;;;;;;5014817;28;20404;-73
2022/10/12 11:15:58;;;;;;;19.15;6.60;;;14.60;31.30;;;;;;5017815;28;20393;-72
2022/10/12 11:18:48;;;;;;;20.93;6.83;;;14.70;31.00;;;;;;5025332;28;20769;-71
2022/10/12 11:21:22;;;;;;;16.20;6.70;;;14.90;31.70;;;;;;5019713;28;20415;-72
2022/10/12 11:24:18;;;;;;;15.15;5.50;;;15.20;29.20;;;;;;5015966;28;20393;-71
2022/10/12 11:26:50;;;;;;;16.45;6.50;;;15.30;28.40;;;;;;5013197;28;20377;-73
2022/10/12 11:29:16;;;;;;;16.38;6.30;;;15.40;29.10;;;;;;5012397;28;20753;-72
2022/10/12 11:31:52;;;;;;;14.45;6.53;;;15.60;27.80;;;;;;5010975;28;20385;-72
2022/10/12 11:34:20;;;;;;;16.23;6.13;;;15.70;28.20;;;;;;5011173;28;20408;-73
2022/10/12 11:36:49;;;;;;;18.15;6.32;;;15.90;28.80;;;;;;5011407;28;20761;-73
2022/10/12 11:39:36;;;;;;;17.27;6.72;;;16.00;28.10;;;;;;5011415;28;20381;-72
2022/10/12 11:42:06;;;;;;;17.27;6.38;;;16.00;26.50;;;;;;5011503;28;20381;-72
2022/10/12 11:44:44;;;;;;;13.25;5.80;;;16.20;26.80;;;;;;5014773;28;20920;-73
2022/10/12 11:47:46;;;;;;;26.08;6.57;;;16.30;25.70;;;;;;5013286;28;20738;-72
2022/10/12 11:50:35;;;;;;;18.42;6.32;;;16.50;24.50;;;;;;4992190;28;20389;-72
2022/10/12 11:53:07;;;;;;;19.77;5.90;;;16.60;23.70;;;;;;5012782;28;20384;-72
2022/10/12 11:55:54;;;;;;;18.85;5.95;;;16.60;23.50;;;;;;5014698;28;20447;-71
2022/10/12 11:58:25;;;;;;;12.25;6.40;;;16.90;22.90;;;;;;5014372;28;20404;-71
2022/10/12 12:01:06;;;;;;;22.73;6.40;;;16.90;22.70;;;;;;5012354;28;20432;-71
2022/10/12 12:04:09;;;;;;;16.02;6.05;;;17.00;23.00;;;;;;5014506;28;20854;-74
2022/10/12 12:07:02;;;;;;;12.95;5.75;;;17.20;22.30;;;;;;5015023;28;20531;-74
2022/10/12 12:09:36;;;;;;;20.95;6.40;;;17.40;22.50;;;;;;5013402;28;20405;-74
2022/10/12 12:12:11;;;;;;;19.40;6.40;;;17.30;22.30;;;;;;5014337;28;20408;-73
2022/10/12 12:14:45;;;;;;;15.70;6.38;;;17.30;22.40;;;;;;5015376;28;20395;-72
2022/10/12 12:17:22;;;;;;;18.42;6.43;;;17.40;21.90;;;;;;5014730;28;20388;-73
2022/10/12 12:19:48;;;;;;;20.23;6.55;;;17.60;22.00;;;;;;5014833;28;20454;-73
2022/10/12 12:22:29;;;;;;;17.45;7.13;;;17.80;21.00;;;;;;5015646;28;20447;-73
2022/10/12 12:25:07;;;;;;;17.20;6.20;;;17.90;21.20;;;;;;5016325;28;20377;-74
2022/10/12 12:27:40;;;;;;;19.88;6.35;;;18.00;21.10;;;;;;5014369;28;20495;-74
2022/10/12 12:30:23;;;;;;;13.60;5.13;;;18.00;20.70;;;;;;5013837;28;20876;-73
2022/10/12 12:32:55;;;;;;;12.67;5.20;;;18.10;19.90;;;;;;5012591;28;20800;-74
2022/10/12 12:35:30;;;;;;;11.65;5.35;;;18.00;20.00;;;;;;5014005;28;20400;-73
2022/10/12 12:38:02;;;;;;;15.40;5.63;;;18.00;20.30;;;;;;5014265;28;20804;-72
2022/10/12 12:40:28;;;;;;;15.82;5.93;;;17.80;21.00;;;;;;5012319;28;20401;-73
2022/10/12 12:43:33;;;;;;;16.55;6.30;;;17.70;21.70;;;;;;5013368;28;20385;-74
2022/10/12 12:45:59;;;;;;;15.95;6.53;;;17.70;21.80;;;;;;5013435;28;20381;-72
2022/10/12 12:48:40;;;;;;;18.58;7.15;;;17.80;21.80;;;;;;5013663;28;20388;-74
2022/10/12 12:51:08;;;;;;;16.63;6.90;;;17.90;21.50;;;;;;5013818;28;20388;-73
2022/10/12 12:53:37;;;;;;;14.05;6.72;;;17.80;22.10;;;;;;5012293;28;20427;-74
2022/10/12 12:56:04;;;;;;;16.85;7.20;;;17.90;21.80;;;;;;5012721;28;20749;-73
2022/10/12 12:58:42;;;;;;;13.43;6.80;;;18.00;21.50;;;;;;5013376;28;20389;-73